Terminal Aerodrome Forecast
Issued by NWS Caribou, ME

Home | Current Version | Previous Version | Text Only | Print | Product List | Glossary On
Versions: 1 2 3 4 5 6 7 8 9 10 11 12 13 14 15 16 17 18 19 20 21
115
FTUS41 KCAR 091211 AAA
TAFBGR
TAF AMD
KBGR 091211Z 0912/1012 36009KT 2SM -SN BR OVC015
     FM091500 01009KT 5SM -SHSN OVC015
     FM092200 01006KT P6SM OVC012
     FM100400 35005KT P6SM OVC020
     FM100800 VRB03KT P6SM OVC035=

USA.gov is the U.S. government's official web portal to all federal, state and local government web resources and services.